Time;durP1;ratioP1;P1;durP2;ratioP2;P2;SDS_P1;SDS_P2;PMS_P1;PMS_P2;Temp;Humidity;BMP_temperature;BMP_pressure;BME280_temperature;BME280_humidity;BME280_pressure;Samples;Min_cycle;Max_cycle;Signal;HPM_P1;HPM_P2
2021/12/12 00:02:25;;;;;;;41.42;14.70;;;;;;;-12.23;99.63;101248.47;4813971;29;20065;-65
2021/12/12 00:04:53;;;;;;;55.78;16.17;;;;;;;-12.21;99.30;101251.97;4843946;29;20049;-71
2021/12/12 00:07:27;;;;;;;29.63;6.00;;;;;;;-12.17;99.10;101254.69;4843931;29;20098;-64
2021/12/12 00:09:56;;;;;;;36.28;10.77;;;;;;;-12.29;99.67;101235.31;4843941;29;20145;-63
2021/12/12 00:12:28;;;;;;;47.13;14.05;;;;;;;-12.32;99.75;101230.97;4828341;29;20113;-64
2021/12/12 00:14:56;;;;;;;21.33;7.72;;;;;;;-12.16;100.00;101266.00;4860660;29;20061;-64
2021/12/12 00:17:23;;;;;;;17.63;6.78;;;;;;;-12.25;100.00;101238.00;4813498;29;20057;-65
2021/12/12 00:19:49;;;;;;;28.20;9.13;;;;;;;-12.11;100.00;101263.47;4843568;29;20084;-64
2021/12/12 00:22:18;;;;;;;35.30;10.98;;;;;;;-12.13;100.00;101253.03;4843553;29;20102;-65
2021/12/12 00:24:45;;;;;;;41.83;10.93;;;;;;;-12.09;100.00;101262.66;4843758;29;20049;-65
2021/12/12 00:27:11;;;;;;;38.40;12.25;;;;;;;-12.05;100.00;101264.47;4843536;29;20140;-65
2021/12/12 00:29:39;;;;;;;29.30;7.70;;;;;;;-12.03;100.00;101273.19;4860237;29;20144;-65
2021/12/12 00:32:10;;;;;;;40.63;9.60;;;;;;;-12.11;100.00;101253.03;4843577;29;20057;-64
2021/12/12 00:34:42;;;;;;;36.17;8.23;;;;;;;-12.18;100.00;101246.84;4828205;29;20049;-64
2021/12/12 00:37:09;;;;;;;21.77;7.03;;;;;;;-12.02;100.00;101274.09;4843136;29;20105;-65
2021/12/12 00:39:37;;;;;;;15.40;5.60;;;;;;;-11.99;100.00;101272.41;4843028;29;20053;-63
2021/12/12 00:42:14;;;;;;;23.52;6.53;;;;;;;-12.03;100.00;101262.75;4827507;29;20053;-64
2021/12/12 00:44:43;;;;;;;21.45;6.22;;;;;;;-11.97;99.69;101262.88;4843152;29;20061;-65
2021/12/12 00:47:10;;;;;;;30.95;8.95;;;;;;;-11.93;99.50;101266.44;4843040;29;20145;-66
2021/12/12 00:49:38;;;;;;;21.10;8.00;;;;;;;-11.98;99.59;101255.06;4854925;29;20207;-65
2021/12/12 00:52:09;;;;;;;21.60;7.70;;;;;;;-11.79;99.28;101282.31;4844932;29;20073;-65
2021/12/12 00:54:36;;;;;;;;;;;;;;;-11.75;99.15;101278.91;4846439;29;20475;-65
2021/12/12 00:57:09;;;;;;;26.85;7.47;;;;;;;-11.72;99.45;101268.53;4845792;29;20430;-65
2021/12/12 00:59:35;;;;;;;28.85;8.48;;;;;;;-11.67;99.58;101279.91;4846082;29;20225;-65
2021/12/12 01:02:04;;;;;;;21.10;7.07;;;;;;;-11.66;98.90;101279.06;4878072;29;20194;-65
2021/12/12 01:04:33;;;;;;;26.55;6.88;;;;;;;-11.77;98.64;101246.69;4860833;29;20052;-63
2021/12/12 01:07:04;;;;;;;26.67;7.45;;;;;;;-11.59;98.85;101274.81;4877354;29;20080;-65
2021/12/12 01:09:46;;;;;;;41.25;9.60;;;;;;;-11.52;98.78;101284.50;4860998;29;20174;-65
2021/12/12 01:12:19;;;;;;;33.10;8.68;;;;;;;-11.49;98.61;101280.22;4845669;29;20183;-66
2021/12/12 01:14:49;;;;;;;18.00;6.38;;;;;;;-11.67;98.59;101253.81;4845332;29;20613;-65
2021/12/12 01:17:21;;;;;;;16.08;5.40;;;;;;;-11.58;98.35;101274.00;4877733;29;20057;-65
2021/12/12 01:19:55;;;;;;;7.72;2.38;;;;;;;-11.55;98.57;101277.53;4845588;29;20495;-64
2021/12/12 01:22:33;;;;;;;18.83;4.85;;;;;;;-11.55;98.56;101274.00;4877291;29;20099;-65
2021/12/12 01:25:01;;;;;;;;;;;;;;;-11.56;99.38;101267.94;4861334;29;20205;-65
2021/12/12 01:27:29;;;;;;;13.70;4.97;;;;;;;-11.56;99.55;101265.31;4860754;29;19920;-65
2021/12/12 01:29:54;;;;;;;17.00;6.45;;;;;;;-11.59;99.61;101254.81;4845394;29;20165;-65
2021/12/12 01:32:29;;;;;;;10.82;4.22;;;;;;;-11.70;100.00;101245.94;4830291;29;20059;-65
2021/12/12 01:34:57;;;;;;;18.23;6.97;;;;;;;-11.64;100.00;101266.94;4846388;29;20537;-64
2021/12/12 01:40:03;;;;;;;20.38;6.50;;;;;;;-11.74;100.00;101254.56;4877486;29;20514;-68
2021/12/12 01:42:55;;;;;;;24.73;7.78;;;;;;;-11.98;100.00;101209.00;4862007;29;20057;-68
2021/12/12 01:45:25;;;;;;;13.60;6.03;;;;;;;-11.80;100.00;101234.50;4861461;29;20053;-68
2021/12/12 01:47:58;;;;;;;31.13;9.05;;;;;;;-11.65;100.00;101249.53;4861547;29;20121;-69
2021/12/12 01:50:41;;;;;;;18.88;5.75;;;;;;;-11.62;100.00;101248.72;4844394;29;20180;-68
2021/12/12 01:53:10;;;;;;;19.88;6.50;;;;;;;-11.61;100.00;101248.72;4860974;29;20132;-68
2021/12/12 01:55:37;;;;;;;64.25;18.08;;;;;;;-11.56;100.00;101249.66;4860602;29;20052;-68
2021/12/12 01:58:09;;;;;;;59.97;16.20;;;;;;;-11.65;100.00;101239.09;4815632;29;20065;-67
2021/12/12 02:00:40;;;;;;;59.03;14.85;;;;;;;-11.54;100.00;101252.31;4860346;29;20076;-68
2021/12/12 02:03:09;;;;;;;39.15;14.25;;;;;;;-11.56;100.00;101249.66;4830221;29;20067;-69
2021/12/12 02:05:36;;;;;;;69.45;17.00;;;;;;;-11.57;100.00;101247.91;4861488;29;20053;-68
2021/12/12 02:08:06;;;;;;;43.92;13.70;;;;;;;-11.51;100.00;101258.47;4877443;29;20060;-68
2021/12/12 02:10:40;;;;;;;50.20;16.30;;;;;;;-11.48;100.00;101248.09;4860219;29;20064;-67
2021/12/12 02:13:08;;;;;;;59.80;14.82;;;;;;;-11.77;100.00;101198.03;4877084;29;20061;-69
2021/12/12 02:15:36;;;;;;;51.63;14.00;;;;;;;-11.50;100.00;101238.47;4860037;29;20048;-69
2021/12/12 02:18:05;;;;;;;44.85;11.25;;;;;;;-11.49;100.00;101241.09;4860100;29;20072;-66
2021/12/12 02:20:42;;;;;;;36.83;12.63;;;;;;;-11.48;100.00;101248.09;4844942;29;20120;-69
2021/12/12 02:36:40;;;;;;;23.42;8.55;;;;;;;-11.32;100.00;101248.34;4876991;29;20135;-68
2021/12/12 02:39:15;;;;;;;42.20;10.95;;;;;;;-11.30;100.00;101241.38;4860545;29;20057;-68
2021/12/12 02:41:45;;;;;;;30.92;9.40;;;;;;;-11.78;100.00;101161.50;4860098;29;20089;-67
2021/12/12 02:44:12;;;;;;;29.77;8.93;;;;;;;-11.31;100.00;101244.84;4860666;29;20073;-67
2021/12/12 02:46:41;;;;;;;26.25;7.85;;;;;;;-11.57;100.00;101189.66;4861181;29;20144;-67
2021/12/12 02:49:23;;;;;;;15.73;5.85;;;;;;;-11.33;100.00;101230.91;4860435;29;20064;-67
2021/12/12 02:51:49;;;;;;;44.85;11.48;;;;;;;-11.25;100.00;101230.19;4876475;29;20151;-68
2021/12/12 02:54:15;;;;;;;22.83;7.53;;;;;;;-11.24;100.00;101225.84;4844592;29;20107;-68
2021/12/12 02:56:45;;;;;;;31.23;6.90;;;;;;;-11.24;100.00;101236.28;4860039;29;20488;-67
2021/12/12 02:59:14;;;;;;;43.97;11.95;;;;;;;-11.23;100.00;101227.59;4876312;29;20561;-67
2021/12/12 03:01:54;;;;;;;43.90;14.27;;;;;;;-11.20;100.00;101232.84;4876350;29;20080;-68
2021/12/12 03:04:21;;;;;;;36.58;11.95;;;;;;;-11.22;100.00;101229.34;4844620;29;20061;-64
2021/12/12 03:06:47;;;;;;;14.30;5.05;;;;;;;-11.21;100.00;101236.31;4859759;29;20065;-65
2021/12/12 03:09:13;;;;;;;37.47;11.13;;;;;;;-11.25;100.00;101230.19;4876496;29;20049;-65
2021/12/12 03:11:39;;;;;;;34.65;10.40;;;;;;;-11.40;100.00;101210.81;4844011;29;20056;-66
2021/12/12 03:14:05;;;;;;;35.45;11.55;;;;;;;-11.34;100.00;101223.94;4861762;29;20444;-67
2021/12/12 03:16:32;;;;;;;48.75;13.82;;;;;;;-11.33;100.00;101230.91;4879859;29;20133;-66
2021/12/12 03:18:59;;;;;;;44.30;13.55;;;;;;;-11.35;100.00;101216.97;4879914;29;20088;-67
2021/12/12 03:21:32;;;;;;;42.40;14.27;;;;;;;-11.32;100.00;101230.94;4879392;29;20057;-66
2021/12/12 03:24:25;;;;;;;33.88;10.45;;;;;;;-11.32;100.00;101219.63;4879766;29;20394;-66
2021/12/12 03:26:57;;;;;;;44.25;14.43;;;;;;;-11.35;100.00;101222.19;4878679;29;20421;-66
2021/12/12 03:29:24;;;;;;;34.25;9.77;;;;;;;-11.32;100.00;101227.47;4862841;29;20124;-68
2021/12/12 03:31:57;;;;;;;42.17;12.80;;;;;;;-11.36;100.00;101225.66;4879871;29;20045;-63
2021/12/12 03:34:25;;;;;;;44.15;13.30;;;;;;;-11.30;100.00;101226.59;4861242;29;20152;-71
2021/12/12 03:36:52;;;;;;;59.95;14.60;;;;;;;-11.28;100.00;101229.25;4853069;29;20178;-62
2021/12/12 03:39:29;;;;;;;34.53;12.30;;;;;;;-11.34;100.00;101223.94;4879833;29;20053;-67
2021/12/12 03:41:57;;;;;;;24.75;7.28;;;;;;;-11.35;100.00;101222.19;4879339;29;20052;-66
2021/12/12 03:44:25;;;;;;;42.25;13.38;;;;;;;-11.50;100.00;101184.56;4847525;29;20065;-64
2021/12/12 03:46:55;;;;;;;27.60;10.20;;;;;;;-11.33;100.00;101217.84;4862908;29;20048;-68
2021/12/12 03:49:21;;;;;;;37.38;12.75;;;;;;;-11.34;100.00;101214.38;4832052;29;20057;-67
2021/12/12 03:51:48;;;;;;;33.90;12.27;;;;;;;-11.44;100.00;101195.09;4863220;29;20577;-68
2021/12/12 03:54:15;;;;;;;34.63;9.52;;;;;;;-11.27;100.00;101221.44;4833558;29;20060;-65
2021/12/12 03:56:44;;;;;;;28.33;8.15;;;;;;;-11.57;100.00;101172.28;4861171;29;20050;-66
2021/12/12 03:59:10;;;;;;;29.60;8.68;;;;;;;-11.27;100.00;101231.00;4871790;29;20060;-66
2021/12/12 04:01:43;;;;;;;35.47;10.63;;;;;;;-11.26;100.00;101228.44;4845609;29;20087;-65
2021/12/12 04:04:12;;;;;;;23.92;6.65;;;;;;;-11.38;100.00;101206.47;4863745;29;20116;-64
2021/12/12 04:06:38;;;;;;;31.80;8.35;;;;;;;-11.40;100.00;101205.59;4870111;29;20613;-66
2021/12/12 04:09:07;;;;;;;20.92;7.20;;;;;;;-11.31;100.00;101223.97;4864644;29;20096;-64
2021/12/12 04:11:41;;;;;;;13.77;3.45;;;;;;;-11.34;99.63;101229.16;4871126;29;20061;-65
2021/12/12 04:14:08;;;;;;;18.80;6.32;;;;;;;-11.31;99.54;101223.97;4859574;29;20493;-64
2021/12/12 04:16:37;;;;;;;23.35;6.03;;;;;;;-11.28;99.14;101229.25;4866625;29;20053;-64
2021/12/12 04:19:05;;;;;;;38.35;10.60;;;;;;;-11.33;100.00;101223.06;4863612;29;20518;-65
2021/12/12 04:21:31;;;;;;;35.28;11.63;;;;;;;-11.46;100.00;101229.84;4858640;29;20046;-65
2021/12/12 04:23:58;;;;;;;47.25;16.35;;;;;;;-11.70;100.00;101217.25;4855420;29;20479;-65
2021/12/12 04:26:27;;;;;;;33.47;10.38;;;;;;;-11.64;100.00;101235.63;4866690;29;20161;-65
2021/12/12 04:28:58;;;;;;;43.95;12.63;;;;;;;-11.75;100.00;101211.09;4869317;29;20049;-64
2021/12/12 04:31:24;;;;;;;31.88;7.65;;;;;;;-11.61;100.00;101220.03;4867554;29;20072;-63
2021/12/12 04:33:52;;;;;;;17.52;5.10;;;;;;;-11.59;100.00;101239.19;4863698;29;20053;-65
2021/12/12 04:36:22;;;;;;;26.13;6.07;;;;;;;-11.90;100.00;101175.25;4847097;29;20066;-65
2021/12/12 04:38:49;;;;;;;29.35;9.25;;;;;;;-11.48;100.00;101241.97;4865102;29;20149;-68
2021/12/12 04:41:15;;;;;;;25.27;7.55;;;;;;;-11.75;99.81;101205.88;4839986;29;20052;-69
2021/12/12 04:43:41;;;;;;;34.20;10.55;;;;;;;-11.68;100.00;101234.69;4841024;29;20053;-73
2021/12/12 04:46:10;;;;;;;14.02;4.00;;;;;;;-11.78;100.00;101205.81;4836395;29;20580;-65
2021/12/12 04:51:48;;;;;;;22.10;6.82;;;;;;;-11.62;100.00;101249.59;4851200;29;20437;-65
2021/12/12 04:54:29;;;;;;;26.45;6.65;;;;;;;-11.63;100.00;101242.59;4822999;29;20046;-66
2021/12/12 04:57:03;;;;;;;38.47;8.32;;;;;;;-11.76;100.00;101230.22;4158434;29;20053;-64
2021/12/12 04:59:33;;;;;;;14.30;5.95;;;;;;;-11.62;100.00;101246.97;4161801;29;20058;-65
2021/12/12 05:02:12;;;;;;;21.83;5.20;;;;;;;-11.60;100.00;101253.06;4168235;29;20054;-63
2021/12/12 05:04:44;;;;;;;27.60;7.30;;;;;;;-11.54;100.00;101263.63;4168483;29;20073;-64
2021/12/12 05:07:15;;;;;;;31.55;10.10;;;;;;;-11.58;100.00;101256.59;4157468;29;20491;-64
2021/12/12 05:09:53;;;;;;;31.05;10.98;;;;;;;-11.78;100.00;101227.56;4168078;29;20065;-64
2021/12/12 05:12:32;;;;;;;35.38;10.80;;;;;;;-11.51;100.00;101263.69;4169415;29;20648;-69
2021/12/12 05:15:06;;;;;;;32.33;8.60;;;;;;;-11.54;100.00;101262.75;4159438;29;20128;-66
2021/12/12 05:17:55;;;;;;;42.58;14.73;;;;;;;-11.56;100.00;101269.66;4168889;29;20073;-66
2021/12/12 05:20:27;;;;;;;14.07;5.80;;;;;;;-11.55;100.00;101269.72;4156998;29;20069;-58
2021/12/12 05:22:54;;;;;;;22.20;7.47;;;;;;;-11.53;100.00;101269.72;4165709;29;20133;-66
2021/12/12 05:25:25;;;;;;;16.73;6.47;;;;;;;-11.59;100.00;101260.03;4150550;33;20145;-65
2021/12/12 05:27:54;;;;;;;27.30;8.30;;;;;;;-11.50;100.00;101269.78;4161849;29;20058;-66
2021/12/12 05:30:26;;;;;;;17.02;5.05;;;;;;;-11.46;100.00;101276.81;4228217;29;20073;-68
2021/12/12 05:32:53;;;;;;;39.08;11.93;;;;;;;-11.68;100.00;101246.84;4849568;29;20437;-65
2021/12/12 05:35:23;;;;;;;42.72;13.98;;;;;;;-11.62;100.00;101262.63;4838135;29;20061;-65
2021/12/12 05:37:51;;;;;;;29.80;8.82;;;;;;;-11.54;100.00;101263.63;4840543;29;20524;-68
2021/12/12 05:40:19;;;;;;;33.97;9.52;;;;;;;-11.61;100.00;101248.72;4854198;29;20085;-67
2021/12/12 05:42:45;;;;;;;35.63;10.57;;;;;;;-11.45;100.00;101268.97;4861962;29;20097;-65
2021/12/12 05:45:13;;;;;;;22.55;6.18;;;;;;;-11.40;100.00;101260.38;4863434;29;20190;-65
2021/12/12 05:47:39;;;;;;;32.28;9.80;;;;;;;-11.56;100.00;101236.63;4854975;29;20068;-66
2021/12/12 05:50:08;;;;;;;29.52;10.30;;;;;;;-11.62;100.00;101244.38;4832515;29;20080;-65
2021/12/12 05:52:34;;;;;;;14.63;6.30;;;;;;;-11.54;100.00;101247.97;4857885;29;20064;-65
2021/12/12 05:55:00;;;;;;;30.45;7.80;;;;;;;-11.39;99.92;101272.56;4829690;29;20198;-65
2021/12/12 05:57:27;;;;;;;32.85;8.90;;;;;;;-11.40;99.86;101271.69;4844131;29;20223;-64
2021/12/12 05:59:55;;;;;;;28.73;7.60;;;;;;;-11.38;100.00;101274.31;4874272;29;20068;-67
2021/12/12 06:02:22;;;;;;;38.75;9.70;;;;;;;-11.46;99.36;101256.81;4828292;29;20482;-68
2021/12/12 06:04:48;;;;;;;25.05;7.55;;;;;;;-11.28;99.22;101281.44;4830324;29;20521;-66
2021/12/12 06:07:17;;;;;;;18.80;5.20;;;;;;;-11.30;99.44;101277.91;4829876;29;20049;-66
2021/12/12 06:09:44;;;;;;;33.35;6.40;;;;;;;-11.49;100.00;101256.75;4860344;29;20057;-65
2021/12/12 06:12:10;;;;;;;22.02;7.38;;;;;;;-11.31;100.00;101286.63;4844341;29;20451;-65
2021/12/12 06:14:36;;;;;;;15.90;6.60;;;;;;;-11.28;100.00;101276.22;4842094;29;20065;-65
2021/12/12 06:17:07;;;;;;;27.58;8.75;;;;;;;-11.31;100.00;101276.19;4840926;29;20053;-66
2021/12/12 06:19:33;;;;;;;23.42;8.00;;;;;;;-11.26;99.87;101264.06;4841057;29;20061;-65
2021/12/12 06:22:01;;;;;;;17.52;6.13;;;;;;;-11.48;99.68;101237.66;4841861;29;20053;-65
2021/12/12 06:24:28;;;;;;;29.55;8.00;;;;;;;-11.28;100.00;101271.00;4826981;29;20141;-65
2021/12/12 06:26:56;;;;;;;17.98;6.10;;;;;;;-11.29;100.00;101279.69;4827679;29;20076;-66
2021/12/12 06:29:22;;;;;;;35.65;10.80;;;;;;;-11.25;100.00;101271.06;4810624;29;20133;-65
2021/12/12 06:31:50;;;;;;;53.05;10.48;;;;;;;-11.19;100.00;101277.28;4841313;29;20459;-65
2021/12/12 06:34:16;;;;;;;41.50;11.98;;;;;;;-11.30;100.00;101262.25;4826248;29;20461;-66
2021/12/12 06:36:42;;;;;;;34.80;9.98;;;;;;;-11.21;100.00;101272.88;4841276;29;20542;-65
2021/12/12 06:39:10;;;;;;;47.78;13.57;;;;;;;-11.33;100.00;101262.22;4810842;29;20526;-66
2021/12/12 06:41:37;;;;;;;26.13;7.95;;;;;;;-11.36;100.00;101262.19;4811109;29;20506;-66
2021/12/12 06:44:08;;;;;;;26.92;8.85;;;;;;;-11.34;100.00;101261.34;4841633;29;20172;-66
2021/12/12 06:46:34;;;;;;;;;;;;;;;-11.18;100.00;101273.78;4841993;29;20202;-65
2021/12/12 06:49:02;;;;;;;51.33;10.82;;;;;;;-11.10;100.00;101276.53;4843398;29;19935;-65
2021/12/12 06:51:29;;;;;;;32.83;10.15;;;;;;;-11.10;100.00;101271.31;4830077;29;20502;-66
2021/12/12 06:53:55;;;;;;;35.33;10.65;;;;;;;-10.98;100.00;101287.16;4814805;29;20053;-65
2021/12/12 06:56:22;;;;;;;19.55;6.22;;;;;;;-10.96;99.91;101277.63;4829440;29;20052;-65
2021/12/12 06:58:51;;;;;;;49.13;11.40;;;;;;;-11.07;99.79;101237.41;4814615;29;20062;-65
2021/12/12 07:01:22;;;;;;;49.70;11.75;;;;;;;-10.76;99.55;101283.13;4861440;29;20053;-65
2021/12/12 07:03:49;;;;;;;29.63;8.93;;;;;;;-10.77;99.11;101280.50;4829430;29;20125;-66
2021/12/12 07:06:21;;;;;;;34.60;8.68;;;;;;;-10.81;99.42;101263.03;4844837;29;20455;-64
2021/12/12 07:08:47;;;;;;;21.52;7.15;;;;;;;-10.78;99.33;101242.19;4861362;29;20104;-65
2021/12/12 07:11:21;;;;;;;26.30;9.05;;;;;;;-10.79;98.80;101235.19;4844379;29;20124;-66
2021/12/12 07:13:49;;;;;;;33.85;8.93;;;;;;;-10.46;98.51;101274.84;4861075;29;20117;-66
2021/12/12 07:16:16;;;;;;;34.95;10.60;;;;;;;-10.48;98.83;101279.16;4814141;29;20144;-66
2021/12/12 07:18:43;;;;;;;32.33;8.65;;;;;;;-10.45;99.37;101279.19;4844225;29;20529;-66
2021/12/12 07:21:12;;;;;;;39.67;12.05;;;;;;;-10.53;99.33;101270.41;4844513;29;20084;-65
2021/12/12 07:23:39;;;;;;;43.63;13.20;;;;;;;-10.41;98.76;101259.22;4844640;29;20057;-65
2021/12/12 07:26:07;;;;;;;32.53;11.00;;;;;;;-10.42;98.46;101249.59;4829174;29;20053;-66
2021/12/12 07:28:34;;;;;;;25.13;7.13;;;;;;;-10.39;98.77;101247.03;4829418;29;20064;-66
2021/12/12 07:31:02;;;;;;;47.10;12.27;;;;;;;-10.27;98.75;101259.41;4844432;29;20065;-66
2021/12/12 07:33:30;;;;;;;62.75;17.55;;;;;;;-10.50;100.00;101264.31;4861650;29;20573;-65
2021/12/12 07:35:59;;;;;;;44.08;11.73;;;;;;;-10.35;100.00;101258.41;4861156;29;20101;-65
2021/12/12 07:38:27;;;;;;;46.55;10.93;;;;;;;-10.22;100.00;101247.22;4861613;29;20093;-66
2021/12/12 07:40:53;;;;;;;47.60;12.77;;;;;;;-10.22;100.00;101255.03;4814852;29;20064;-66
2021/12/12 07:43:20;;;;;;;65.03;14.88;;;;;;;-10.27;100.00;101256.78;4829647;29;20053;-65
2021/12/12 07:45:47;;;;;;;73.20;18.15;;;;;;;-10.41;100.00;101253.13;4814400;29;20470;-65
2021/12/12 07:48:13;;;;;;;58.58;13.20;;;;;;;-10.32;100.00;101255.81;4828922;29;20061;-65
2021/12/12 07:50:43;;;;;;;34.25;10.50;;;;;;;-10.19;100.00;101244.63;4813824;29;20255;-66
2021/12/12 07:53:09;;;;;;;41.65;9.90;;;;;;;-10.21;100.00;101251.56;4844583;29;20061;-66
2021/12/12 07:55:35;;;;;;;45.38;12.68;;;;;;;-10.13;100.00;101252.53;4814037;29;20062;-66
2021/12/12 07:58:09;;;;;;;26.10;7.75;;;;;;;-10.09;100.00;101242.97;4861417;29;20069;-66
2021/12/12 08:00:35;;;;;;;21.67;6.13;;;;;;;-10.09;100.00;101241.28;4860608;29;20061;-65
2021/12/12 08:03:02;;;;;;;41.40;10.57;;;;;;;-10.12;100.00;101220.31;4828792;29;20187;-65
2021/12/12 08:05:29;;;;;;;52.80;14.52;;;;;;;-9.97;100.00;101246.63;4828721;29;20418;-66
2021/12/12 08:08:02;;;;;;;55.00;12.55;;;;;;;-10.02;100.00;101243.09;4844444;29;20063;-66
2021/12/12 08:10:28;;;;;;;62.42;16.98;;;;;;;-9.99;100.00;101255.28;4860786;29;20065;-65
2021/12/12 08:12:55;;;;;;;52.97;13.77;;;;;;;-9.92;100.00;101262.34;4843861;29;20053;-65
2021/12/12 08:15:23;;;;;;;71.68;18.60;;;;;;;-10.05;100.00;101252.63;4813024;29;20514;-66
2021/12/12 08:17:49;;;;;;;42.95;11.75;;;;;;;-9.98;100.00;101239.66;4860499;29;20054;-66
2021/12/12 08:20:16;;;;;;;59.15;16.60;;;;;;;-10.12;100.00;101214.22;4828727;29;20065;-66
2021/12/12 08:22:43;;;;;;;52.33;12.15;;;;;;;-9.63;100.00;101262.66;4843791;29;20058;-66
2021/12/12 08:25:12;;;;;;;52.75;15.05;;;;;;;-9.87;100.00;101234.53;4828514;29;20080;-66
2021/12/12 08:27:39;;;;;;;49.50;15.93;;;;;;;-9.77;100.00;101253.78;4843372;29;20209;-66
2021/12/12 08:30:06;;;;;;;38.90;9.48;;;;;;;-9.89;100.00;101203.97;4828925;29;20077;-65
2021/12/12 08:32:32;;;;;;;53.17;15.13;;;;;;;-9.65;100.00;101243.47;4843223;29;20058;-66
2021/12/12 08:34:59;;;;;;;39.20;11.38;;;;;;;-9.52;100.00;101234.84;4843349;29;20497;-66
2021/12/12 08:37:27;;;;;;;50.33;13.07;;;;;;;-9.44;99.19;101220.94;4812762;29;20421;-66
2021/12/12 08:39:56;;;;;;;34.15;8.88;;;;;;;-9.38;99.81;101215.75;4813261;29;20068;-66
2021/12/12 08:42:27;;;;;;;43.80;14.45;;;;;;;-9.46;99.65;101210.47;4812989;29;20060;-65
2021/12/12 08:44:57;;;;;;;36.88;11.55;;;;;;;-9.25;98.88;101222.81;4860814;29;20084;-66
2021/12/12 08:47:24;;;;;;;36.40;11.38;;;;;;;-9.32;99.74;101206.22;4843419;29;20127;-66
2021/12/12 08:49:51;;;;;;;56.03;15.00;;;;;;;-9.34;100.00;101209.69;4827625;29;20060;-66
2021/12/12 08:52:26;;;;;;;64.72;16.67;;;;;;;-9.30;100.00;101224.53;4843415;29;20081;-65
2021/12/12 08:54:53;;;;;;;62.13;17.98;;;;;;;-9.52;100.00;101244.44;4812586;29;20426;-65
2021/12/12 08:57:32;;;;;;;55.47;15.48;;;;;;;-9.38;100.00;101242.81;4843406;29;20064;-66
2021/12/12 09:00:01;;;;;;;49.38;15.35;;;;;;;-9.32;100.00;101236.75;4814142;29;20114;-66
2021/12/12 09:02:27;;;;;;;66.57;17.77;;;;;;;-9.27;100.00;101240.28;4843061;29;20056;-66
2021/12/12 09:05:01;;;;;;;61.55;15.50;;;;;;;-9.27;100.00;101229.81;4843999;29;20088;-68
2021/12/12 09:07:35;;;;;;;57.22;16.02;;;;;;;-9.00;100.00;101218.63;4828600;29;20418;-65
2021/12/12 09:10:10;;;;;;;33.88;9.48;;;;;;;-9.01;100.00;101222.13;4859136;29;20057;-66
2021/12/12 09:12:40;;;;;;;36.95;12.57;;;;;;;-9.17;100.00;101202.81;4841932;29;20266;-66
2021/12/12 09:15:23;;;;;;;36.75;10.68;;;;;;;-9.27;100.00;101208.84;4828440;29;20057;-66
2021/12/12 09:17:57;;;;;;;35.90;10.90;;;;;;;-9.11;100.00;101231.66;4829140;29;20057;-66
2021/12/12 09:20:56;;;;;;;54.80;14.20;;;;;;;-8.98;100.00;101233.50;4812863;29;20079;-66
2021/12/12 09:23:32;;;;;;;49.58;14.88;;;;;;;-9.06;100.00;101202.91;4827505;29;20518;-66
2021/12/12 09:26:08;;;;;;;66.53;17.60;;;;;;;-8.86;100.00;101239.69;4828195;29;20061;-65
2021/12/12 09:28:56;;;;;;;84.10;21.30;;;;;;;-8.88;100.00;101228.34;4861417;29;20084;-66
2021/12/12 09:31:28;;;;;;;30.73;8.55;;;;;;;-8.85;100.00;101218.72;4830483;29;20490;-65
2021/12/12 09:34:18;;;;;;;39.33;9.40;;;;;;;-8.82;100.00;101223.09;4845599;29;20056;-65
2021/12/12 09:36:56;;;;;;;50.30;13.88;;;;;;;-8.79;100.00;101228.38;4841455;29;20421;-70
2021/12/12 09:39:31;;;;;;;50.85;12.15;;;;;;;-8.74;100.00;101210.91;4845399;29;20476;-66
2021/12/12 09:42:33;;;;;;;38.92;11.85;;;;;;;-8.63;100.00;101214.47;4841887;29;20147;-66
2021/12/12 09:45:37;;;;;;;60.97;14.55;;;;;;;-8.53;100.00;101210.16;4852951;29;20057;-69
2021/12/12 09:51:34;;;;;;;57.13;14.75;;;;;;;-8.47;100.00;101193.59;4857146;29;20057;-66
2021/12/12 09:54:13;;;;;;;51.40;13.45;;;;;;;-8.30;100.00;101212.81;4837838;29;20064;-67
2021/12/12 09:57:01;;;;;;;50.55;12.63;;;;;;;-8.28;100.00;101217.22;4857293;29;20056;-66
2021/12/12 09:59:42;;;;;;;51.10;13.38;;;;;;;-8.63;100.00;101135.84;4828410;29;20069;-66
2021/12/12 10:02:42;;;;;;;47.50;13.25;;;;;;;-8.36;100.00;101165.63;4822654;29;20529;-66
2021/12/12 10:05:25;;;;;;;51.50;14.45;;;;;;;-8.30;100.00;101190.13;4852282;29;20077;-66
2021/12/12 10:08:23;;;;;;;58.38;15.13;;;;;;;-8.14;100.00;101200.66;4841381;29;20539;-66
2021/12/12 10:11:03;;;;;;;54.70;13.50;;;;;;;-8.30;100.00;101176.09;4840774;29;20459;-66
2021/12/12 10:13:47;;;;;;;59.63;14.90;;;;;;;-8.15;100.00;101202.41;4838893;29;20061;-66
2021/12/12 10:16:38;;;;;;;67.55;17.13;;;;;;;-8.18;100.00;101204.16;4846370;29;20057;-66
2021/12/12 10:19:15;;;;;;;43.55;12.52;;;;;;;-8.25;100.00;101185.75;4828861;29;20053;-66
2021/12/12 10:22:10;;;;;;;47.85;12.85;;;;;;;-8.17;100.00;101183.16;4825188;29;20064;-66
2021/12/12 10:24:40;;;;;;;46.78;12.18;;;;;;;-8.09;100.00;101176.16;4853292;29;20113;-66
2021/12/12 10:27:25;;;;;;;55.45;13.15;;;;;;;-8.14;100.00;101167.41;4825940;29;20582;-66
2021/12/12 10:30:08;;;;;;;85.40;12.27;;;;;;;-8.09;100.00;101165.66;4853313;29;20061;-66
2021/12/12 10:33:05;;;;;;;50.30;13.10;;;;;;;-7.95;100.00;101172.69;4859619;29;20462;-66
2021/12/12 10:35:37;;;;;;;75.55;21.08;;;;;;;-8.05;100.00;101177.91;4837721;29;20064;-66
2021/12/12 10:38:45;;;;;;;71.47;18.33;;;;;;;-8.04;100.00;101168.31;4836878;29;20068;-66
2021/12/12 10:41:16;;;;;;;60.65;17.50;;;;;;;-8.29;100.00;101104.44;4840471;29;20057;-66
2021/12/12 10:43:52;;;;;;;69.40;16.25;;;;;;;-7.88;100.00;101158.72;4843325;29;20076;-66
2021/12/12 10:46:38;;;;;;;39.65;10.80;;;;;;;-7.72;100.00;101176.22;4821581;29;20065;-66
2021/12/12 10:49:52;;;;;;;66.25;16.73;;;;;;;-7.55;100.00;101174.47;4863396;29;20054;-65
2021/12/12 10:52:29;;;;;;;50.20;13.52;;;;;;;-7.50;100.00;101160.47;4826554;29;20061;-68
2021/12/12 10:54:57;;;;;;;;;;;;;;;-7.33;100.00;101166.59;4842005;29;20053;-66
2021/12/12 10:57:26;;;;;;;35.45;11.60;;;;;;;-7.37;100.00;101164.84;4855711;29;20012;-65
2021/12/12 11:00:00;;;;;;;41.15;12.18;;;;;;;-7.39;100.00;101156.94;4846874;29;20386;-70
2021/12/12 11:02:32;;;;;;;49.72;11.95;;;;;;;-7.45;100.00;101142.97;4818655;29;20056;-71
2021/12/12 11:05:09;;;;;;;66.25;17.15;;;;;;;-7.20;100.00;101176.22;4853542;29;20065;-66
2021/12/12 11:07:43;;;;;;;51.83;14.68;;;;;;;-7.30;100.00;101174.47;4865328;29;20052;-74
2021/12/12 11:10:18;;;;;;;45.13;11.45;;;;;;;-7.36;100.00;101174.47;4866700;29;20402;-65
2021/12/12 11:12:57;;;;;;;64.13;15.52;;;;;;;-7.31;100.00;101167.47;4853833;29;20609;-65
2021/12/12 11:15:48;;;;;;;80.82;18.92;;;;;;;-7.34;100.00;101181.47;4866771;29;20053;-65
2021/12/12 11:18:25;;;;;;;61.72;17.60;;;;;;;-7.22;100.00;101183.22;4849588;29;20065;-66
2021/12/12 11:20:54;;;;;;;48.92;12.25;;;;;;;-7.34;100.00;101193.75;4848124;29;20051;-65
2021/12/12 11:23:31;;;;;;;62.83;14.18;;;;;;;-7.20;100.00;101191.97;4854516;29;20068;-65
2021/12/12 11:26:03;;;;;;;57.38;14.77;;;;;;;-7.22;100.00;101183.22;4829449;29;20045;-66
2021/12/12 11:28:40;;;;;;;69.60;16.02;;;;;;;-7.20;100.00;101181.47;4856800;29;20061;-66
2021/12/12 11:31:12;;;;;;;52.08;13.50;;;;;;;-7.17;100.00;101176.19;4857184;29;20065;-66
2021/12/12 11:33:39;;;;;;;72.78;16.73;;;;;;;-7.18;100.00;101181.44;4839378;29;20097;-65
2021/12/12 11:36:08;;;;;;;62.70;17.00;;;;;;;-7.33;100.00;101133.31;4845987;29;20161;-66
2021/12/12 11:38:49;;;;;;;52.15;15.13;;;;;;;-7.09;100.00;101179.69;4831952;29;20171;-66
2021/12/12 11:41:25;;;;;;;66.90;16.00;;;;;;;-7.18;100.00;101158.69;4827555;29;20056;-66
2021/12/12 11:44:02;;;;;;;43.50;12.80;;;;;;;-7.16;100.00;101167.44;4846731;29;20061;-66
2021/12/12 11:46:40;;;;;;;53.38;14.63;;;;;;;-7.21;100.00;101161.31;4840240;29;20422;-66